CheckWX is a tool to help pilots better visualize weather data.  It is not intended as a substitute for an official pre-flight weather briefing.

01:18:42 UTC

KACT TAF
Waco Regional Airport
Waco, Texas, USA
KACT 232330Z 2400/2424 26020G30KT P6SM FEW250 FM240400 33010KT P6SM FEW250 FM241500 02008KT P6SM FEW250

Feb-24@
00:00 UTC

Feb-24 @ 00:00 UTC

Feb-24@
04:00 UTC

Feb-24 @ 04:00 UTC

KACT 232330Z 2400/2424 26020G30KT P6SM FEW250
Wind
  • 260° at 20 KTS
  • {Gusting to 30 KTS
Cloud Levels
  • Few at 25,000' AGL

Feb-24@
04:00 UTC

Feb-24 @ 04:00 UTC

Feb-24@
15:00 UTC

Feb-24 @ 15:00 UTC

FM240400 33010KT P6SM FEW250

From

From Standard forecast or significant change

Wind
  • 330° at 10 KTS
Cloud Levels
  • Few at 25,000' AGL

Feb-24@
15:00 UTC

Feb-24 @ 15:00 UTC

Feb-25@
00:00 UTC

Feb-25 @ 00:00 UTC

FM241500 02008KT P6SM FEW250

From

From Standard forecast or significant change

Wind
  • 020° at 8 KTS
Cloud Levels
  • Few at 25,000' AGL